Terminal Aerodrome Forecast
Issued by NWS Wilmington, OH

Home | Current Version | Previous Version | Text Only | Print | Product List | Glossary On
Versions: 1 2 3 4 5 6 7 8 9 10 11 12 13 14 15 16 17
000
FTUS41 KILN 252328
TAFCMH
TAF
KCMH 252328Z 2600/2624 25006KT P6SM VCSH SCT020 OVC040
      TEMPO 2600/2604 5SM -SHRA BR OVC020
     FM260600 28008KT P6SM OVC015
      TEMPO 2609/2613 OVC010
     FM261300 27008KT P6SM BKN025
     FM261800 25010KT P6SM BKN040=

USA.gov is the U.S. government's official web portal to all federal, state and local government web resources and services.